createdAt,value
2023-04-25T00:00:26.989Z,6.97
2023-04-25T00:02:54.670Z,6.32
2023-04-25T00:05:24.398Z,5.03
2023-04-25T00:07:52.441Z,5.50
2023-04-25T00:10:21.290Z,5.78
2023-04-25T00:12:48.974Z,9.35
2023-04-25T00:15:16.583Z,9.25
2023-04-25T00:17:44.159Z,11.85
2023-04-25T00:20:12.160Z,7.95
2023-04-25T00:22:39.514Z,8.63
2023-04-25T00:25:07.782Z,9.80
2023-04-25T00:27:35.140Z,7.85
2023-04-25T00:30:02.495Z,7.07
2023-04-25T00:32:29.782Z,7.05
2023-04-25T00:34:59.150Z,8.23
2023-04-25T00:37:26.564Z,7.47
2023-04-25T00:39:55.957Z,10.63
2023-04-25T00:42:23.340Z,10.32
2023-04-25T00:44:52.688Z,8.30
2023-04-25T00:47:20.944Z,9.52
2023-04-25T00:49:48.244Z,10.52
2023-04-25T00:52:15.881Z,9.27
2023-04-25T00:54:43.175Z,8.07
2023-04-25T00:57:11.761Z,7.38
2023-04-25T00:59:39.679Z,9.63
2023-04-25T01:02:08.394Z,7.35
2023-04-25T01:04:35.888Z,7.97
2023-04-25T01:07:03.948Z,11.73
2023-04-25T01:09:33.098Z,8.18
2023-04-25T01:12:01.209Z,9.55
2023-04-25T01:14:28.564Z,7.15
2023-04-25T01:16:56.086Z,7.78
2023-04-25T01:19:23.553Z,7.38
2023-04-25T01:21:52.087Z,8.80
2023-04-25T01:24:20.493Z,6.88
2023-04-25T01:26:51.023Z,12.55
2023-04-25T01:29:23.177Z,8.55
2023-04-25T01:31:51.259Z,8.65
2023-04-25T01:34:18.586Z,8.27
2023-04-25T01:36:46.131Z,7.53
2023-04-25T01:39:13.479Z,8.55
2023-04-25T01:41:40.668Z,7.63
2023-04-25T01:44:08.060Z,9.10
2023-04-25T01:46:36.402Z,7.53
2023-04-25T01:49:04.491Z,8.82
2023-04-25T01:51:32.783Z,8.55
2023-04-25T01:54:01.153Z,8.48
2023-04-25T01:56:33.812Z,9.68
2023-04-25T01:59:01.981Z,8.10
2023-04-25T02:01:36.792Z,8.68
2023-04-25T02:04:17.413Z,8.05
2023-04-25T02:06:45.269Z,8.52
2023-04-25T02:09:12.748Z,6.05
2023-04-25T02:11:45.775Z,6.75
2023-04-25T02:14:32.948Z,5.63
2023-04-25T02:17:06.882Z,5.55
2023-04-25T02:19:34.421Z,6.40
2023-04-25T02:22:01.853Z,6.60
2023-04-25T02:24:29.095Z,7.22
2023-04-25T02:26:57.353Z,6.82
2023-04-25T02:29:24.955Z,7.05
2023-04-25T02:31:52.415Z,5.63
2023-04-25T02:34:19.646Z,5.78
2023-04-25T02:36:46.961Z,7.75
2023-04-25T02:39:14.180Z,8.13
2023-04-25T02:41:41.409Z,7.72
2023-04-25T02:44:08.645Z,8.02
2023-04-25T02:46:39.317Z,9.30
2023-04-25T02:49:07.610Z,7.03
2023-04-25T02:51:35.926Z,5.50
2023-04-25T02:54:03.167Z,7.20
2023-04-25T02:56:32.813Z,6.70
2023-04-25T02:59:00.047Z,6.80
2023-04-25T03:01:27.683Z,5.50
2023-04-25T03:03:55.314Z,6.47
2023-04-25T03:06:23.017Z,10.48
2023-04-25T03:08:50.306Z,5.72
2023-04-25T03:11:18.527Z,5.65
2023-04-25T03:13:46.100Z,4.07
2023-04-25T03:16:13.501Z,4.32
2023-04-25T03:18:41.037Z,5.82
2023-04-25T03:21:08.331Z,6.45
2023-04-25T03:23:35.727Z,7.03
2023-04-25T03:26:02.969Z,7.25
2023-04-25T03:28:30.248Z,7.03
2023-04-25T03:30:57.957Z,7.88
2023-04-25T03:33:25.502Z,9.60
2023-04-25T03:35:53.094Z,8.88
2023-04-25T03:38:20.877Z,10.50
2023-04-25T03:40:48.034Z,6.72
2023-04-25T03:43:15.326Z,6.90
2023-04-25T03:45:49.434Z,4.57
2023-04-25T03:48:25.892Z,6.30
2023-04-25T03:50:55.798Z,4.20
2023-04-25T03:53:23.201Z,3.13
2023-04-25T03:56:10.878Z,4.38
2023-04-25T03:58:40.083Z,8.45
2023-04-25T04:01:08.972Z,8.68
2023-04-25T04:03:39.443Z,6.53
2023-04-25T04:06:08.445Z,6.10
2023-04-25T04:08:39.639Z,9.23
2023-04-25T04:11:07.353Z,18.55
2023-04-25T04:13:34.808Z,8.40
2023-04-25T04:16:04.369Z,13.48
2023-04-25T04:18:32.426Z,8.93
2023-04-25T04:20:59.683Z,7.18
2023-04-25T04:23:29.824Z,7.88
2023-04-25T04:25:58.980Z,5.68
2023-04-25T04:28:29.624Z,6.93
2023-04-25T04:31:04.917Z,7.43
2023-04-25T04:33:32.712Z,13.27
2023-04-25T04:36:03.826Z,4.38
2023-04-25T04:38:31.566Z,7.03
2023-04-25T04:41:04.550Z,8.00
2023-04-25T04:43:52.110Z,3.80
2023-04-25T04:46:32.435Z,2.92
2023-04-25T04:49:13.560Z,5.47
2023-04-25T04:52:01.988Z,6.32
2023-04-25T04:54:49.172Z,3.33
2023-04-25T04:57:29.299Z,3.92
2023-04-25T05:00:11.901Z,6.50
2023-04-25T05:02:59.173Z,4.50
2023-04-25T05:05:33.496Z,8.63
2023-04-25T05:08:20.670Z,5.97
2023-04-25T05:11:07.815Z,9.30
2023-04-25T05:13:41.538Z,2.33
2023-04-25T05:16:27.449Z,2.33
2023-04-25T05:19:14.728Z,2.95
2023-04-25T05:21:48.657Z,6.38
2023-04-25T05:24:29.544Z,6.72
2023-04-25T05:27:00.439Z,6.57
2023-04-25T05:29:42.645Z,2.75
2023-04-25T05:32:26.416Z,5.63
2023-04-25T05:34:54.172Z,6.22
2023-04-25T05:37:26.618Z,4.70
2023-04-25T05:39:57.679Z,5.53
2023-04-25T05:42:45.012Z,4.20
2023-04-25T05:45:32.378Z,6.18
2023-04-25T05:48:07.021Z,4.00
2023-04-25T05:50:44.417Z,4.38
2023-04-25T05:53:31.652Z,3.85
2023-04-25T05:56:04.915Z,4.15
2023-04-25T05:58:35.218Z,3.50
2023-04-25T06:01:04.405Z,3.08
2023-04-25T06:03:32.092Z,3.75
2023-04-25T06:05:59.648Z,4.97
2023-04-25T06:08:27.508Z,2.47
2023-04-25T06:10:54.981Z,2.13
2023-04-25T06:13:24.072Z,2.90
2023-04-25T06:15:51.445Z,3.20
2023-04-25T06:18:18.768Z,2.75
2023-04-25T06:20:46.092Z,2.78
2023-04-25T06:23:13.463Z,3.55
2023-04-25T06:25:52.357Z,4.05
2023-04-25T06:28:20.573Z,2.85
2023-04-25T06:30:47.846Z,2.88
2023-04-25T06:33:18.677Z,3.35
2023-04-25T06:35:46.886Z,4.07
2023-04-25T06:38:17.133Z,5.13
2023-04-25T06:40:48.580Z,2.47
2023-04-25T06:43:16.039Z,2.05
2023-04-25T06:46:03.295Z,2.83
2023-04-25T06:48:32.962Z,3.67
2023-04-25T06:51:00.248Z,2.13
2023-04-25T06:53:28.611Z,2.50
2023-04-25T06:56:00.070Z,2.05
2023-04-25T06:58:35.963Z,1.83
2023-04-25T07:01:10.415Z,3.42
2023-04-25T07:03:38.995Z,1.83
2023-04-25T07:06:11.399Z,3.95
2023-04-25T07:08:39.151Z,4.95
2023-04-25T07:11:06.572Z,4.03
2023-04-25T07:13:34.046Z,2.38
2023-04-25T07:16:01.815Z,13.52
2023-04-25T07:18:31.468Z,3.70
2023-04-25T07:20:59.863Z,1.30
2023-04-25T07:23:27.360Z,1.95
2023-04-25T07:25:57.063Z,4.25
2023-04-25T07:28:26.302Z,1.50
2023-04-25T07:30:53.626Z,3.70
2023-04-25T07:33:21.648Z,1.63
2023-04-25T07:35:49.100Z,4.40
2023-04-25T07:38:16.277Z,1.45
2023-04-25T07:40:44.025Z,1.88
2023-04-25T07:43:15.905Z,1.63
2023-04-25T07:45:50.170Z,1.50
2023-04-25T07:48:20.442Z,3.88
2023-04-25T07:50:48.633Z,1.30
2023-04-25T07:53:16.086Z,1.58
2023-04-25T07:55:50.101Z,12.85
2023-04-25T07:58:22.486Z,2.63
2023-04-25T08:00:54.097Z,9.43
2023-04-25T08:03:41.424Z,4.95
2023-04-25T08:06:15.990Z,2.13
2023-04-25T08:08:51.870Z,3.25
2023-04-25T08:11:22.552Z,1.05
2023-04-25T08:13:50.576Z,1.70
2023-04-25T08:16:18.945Z,1.23
2023-04-25T08:18:47.483Z,2.88
2023-04-25T08:21:15.157Z,2.17
2023-04-25T08:23:42.822Z,1.60
2023-04-25T08:26:13.805Z,1.30
2023-04-25T08:28:43.412Z,1.60
2023-04-25T08:31:10.647Z,1.15
2023-04-25T08:33:48.868Z,2.97
2023-04-25T08:36:39.642Z,1.30
2023-04-25T08:39:27.486Z,2.70
2023-04-25T08:42:16.824Z,1.25
2023-04-25T08:44:46.363Z,2.42
2023-04-25T08:47:14.277Z,0.73
2023-04-25T08:49:48.224Z,2.45
2023-04-25T08:52:23.419Z,3.53
2023-04-25T08:54:52.489Z,1.50
2023-04-25T08:57:21.986Z,3.97
2023-04-25T08:59:50.565Z,2.70
2023-04-25T09:02:21.094Z,1.67
2023-04-25T09:04:51.542Z,1.75
2023-04-25T09:07:22.411Z,2.47
2023-04-25T09:09:51.033Z,1.52
2023-04-25T09:12:21.698Z,2.47
2023-04-25T09:15:09.882Z,3.20
2023-04-25T09:17:57.976Z,1.90
2023-04-25T09:20:28.754Z,1.00
2023-04-25T09:23:06.385Z,1.10
2023-04-25T09:25:40.748Z,1.77
2023-04-25T09:28:10.974Z,3.08
2023-04-25T09:30:38.507Z,2.92
2023-04-25T09:33:12.317Z,3.78
2023-04-25T09:35:45.090Z,2.47
2023-04-25T09:38:20.874Z,2.08
2023-04-25T09:40:58.062Z,2.10
2023-04-25T09:43:36.218Z,1.67
2023-04-25T09:46:04.249Z,1.95
2023-04-25T09:48:32.021Z,2.28
2023-04-25T09:51:09.345Z,1.23
2023-04-25T09:53:38.881Z,2.78
2023-04-25T09:56:30.160Z,1.58
2023-04-25T09:58:57.954Z,1.90
2023-04-25T10:01:26.971Z,1.58
2023-04-25T10:04:10.459Z,1.95
2023-04-25T10:06:58.856Z,2.30
2023-04-25T10:09:30.405Z,2.55
2023-04-25T10:11:58.280Z,2.05
2023-04-25T10:14:26.718Z,2.00
2023-04-25T10:16:55.292Z,1.67
2023-04-25T10:19:23.644Z,1.48
2023-04-25T10:21:59.597Z,1.65
2023-04-25T10:24:27.933Z,1.42
2023-04-25T10:26:55.996Z,1.95
2023-04-25T10:29:26.252Z,1.92
2023-04-25T10:31:53.640Z,0.75
2023-04-25T10:34:26.836Z,1.55
2023-04-25T10:36:54.615Z,1.45
2023-04-25T10:39:25.133Z,1.73
2023-04-25T10:42:00.830Z,2.15
2023-04-25T10:44:29.883Z,3.00
2023-04-25T10:46:59.195Z,1.42
2023-04-25T10:49:32.253Z,1.65
2023-04-25T10:52:28.263Z,1.55
2023-04-25T10:54:56.600Z,0.98
2023-04-25T10:57:46.017Z,1.83
2023-04-25T11:00:14.786Z,1.67
2023-04-25T11:02:44.513Z,2.15
2023-04-25T11:05:19.677Z,1.58
2023-04-25T11:08:03.880Z,0.85
2023-04-25T11:10:36.761Z,2.60
2023-04-25T11:13:04.625Z,3.40
2023-04-25T11:15:31.796Z,2.13
2023-04-25T11:17:59.104Z,2.05
2023-04-25T11:20:29.310Z,2.15
2023-04-25T11:23:00.247Z,1.70
2023-04-25T11:25:28.060Z,1.65
2023-04-25T11:27:58.421Z,3.97
2023-04-25T11:30:27.378Z,2.17
2023-04-25T11:32:55.092Z,1.67
2023-04-25T11:35:24.477Z,3.63
2023-04-25T11:37:52.366Z,2.67
2023-04-25T11:40:19.638Z,3.35
2023-04-25T11:42:48.738Z,5.97
2023-04-25T11:45:16.586Z,3.33
2023-04-25T11:47:44.023Z,2.45
2023-04-25T11:50:11.470Z,7.60
2023-04-25T11:52:58.046Z,1.85
2023-04-25T11:55:25.707Z,1.85
2023-04-25T11:57:53.100Z,1.92
2023-04-25T12:00:22.826Z,1.85
2023-04-25T12:03:00.443Z,2.83
2023-04-25T12:05:33.390Z,0.90
2023-04-25T12:08:17.594Z,2.00
2023-04-25T12:10:47.333Z,2.05
2023-04-25T12:13:23.383Z,1.42
2023-04-25T12:15:51.126Z,1.88
2023-04-25T12:18:24.577Z,2.30
2023-04-25T12:20:53.484Z,2.35
2023-04-25T12:23:28.454Z,1.35
2023-04-25T12:25:56.737Z,1.30
2023-04-25T12:28:25.875Z,6.10
2023-04-25T12:31:01.941Z,1.75
2023-04-25T12:33:31.735Z,1.58
2023-04-25T12:36:00.423Z,3.53
2023-04-25T12:38:31.472Z,2.58
2023-04-25T12:40:59.635Z,7.50
2023-04-25T12:43:27.102Z,8.18
2023-04-25T12:45:56.512Z,4.95
2023-04-25T12:48:24.590Z,3.97
2023-04-25T12:50:53.067Z,0.90
2023-04-25T12:53:23.594Z,0.90
2023-04-25T12:55:51.781Z,3.00
2023-04-25T12:58:21.085Z,2.65
2023-04-25T13:00:48.959Z,2.67
2023-04-25T13:03:16.431Z,2.75
2023-04-25T13:05:43.969Z,1.02
2023-04-25T13:08:11.239Z,1.02
2023-04-25T13:10:40.466Z,2.20
2023-04-25T13:13:07.735Z,2.72
2023-04-25T13:15:35.026Z,3.17
2023-04-25T13:18:02.489Z,1.25
2023-04-25T13:20:29.832Z,2.00
2023-04-25T13:22:57.042Z,1.42
2023-04-25T13:25:24.552Z,2.35
2023-04-25T13:27:51.960Z,2.35
2023-04-25T13:30:19.273Z,4.13
2023-04-25T13:32:46.740Z,2.28
2023-04-25T13:35:15.114Z,1.88
2023-04-25T13:37:42.408Z,2.28
2023-04-25T13:40:12.399Z,0.95
2023-04-25T13:42:40.848Z,1.75
2023-04-25T13:45:09.037Z,3.90
2023-04-25T13:47:36.574Z,1.63
2023-04-25T13:50:05.139Z,1.55
2023-04-25T13:52:32.808Z,2.42
2023-04-25T13:55:00.603Z,3.05
2023-04-25T13:57:27.877Z,1.30
2023-04-25T13:59:55.508Z,1.55
2023-04-25T14:02:22.942Z,1.75
2023-04-25T14:04:50.314Z,0.60
2023-04-25T14:07:17.712Z,1.55
2023-04-25T14:09:46.006Z,2.03
2023-04-25T14:12:13.288Z,1.88
2023-04-25T14:14:40.879Z,1.88
2023-04-25T14:17:08.132Z,1.40
2023-04-25T14:19:35.656Z,1.63
2023-04-25T14:22:02.836Z,2.78
2023-04-25T14:24:30.181Z,1.40
2023-04-25T14:26:57.576Z,0.93
2023-04-25T14:29:24.922Z,2.30
2023-04-25T14:31:52.320Z,2.17
2023-04-25T14:34:19.992Z,4.45
2023-04-25T14:36:47.295Z,0.88
2023-04-25T14:39:15.939Z,1.48
2023-04-25T14:41:43.213Z,1.17
2023-04-25T14:44:10.605Z,0.95
2023-04-25T14:46:38.363Z,1.30
2023-04-25T14:49:06.565Z,1.83
2023-04-25T14:51:34.181Z,2.75
2023-04-25T14:54:01.646Z,1.45
2023-04-25T14:56:28.750Z,1.70
2023-04-25T14:58:56.255Z,2.40
2023-04-25T15:01:23.771Z,3.60
2023-04-25T15:03:52.707Z,3.13
2023-04-25T15:06:20.193Z,3.33
2023-04-25T15:08:47.698Z,1.02
2023-04-25T15:11:15.216Z,1.75
2023-04-25T15:13:42.710Z,0.93
2023-04-25T15:16:10.254Z,1.75
2023-04-25T15:18:37.625Z,2.15
2023-04-25T15:21:05.522Z,2.88
2023-04-25T15:23:32.969Z,2.38
2023-04-25T15:26:00.213Z,1.35
2023-04-25T15:28:27.562Z,1.80
2023-04-25T15:30:55.107Z,1.85
2023-04-25T15:33:22.361Z,1.55
2023-04-25T15:35:49.573Z,2.05
2023-04-25T15:38:16.918Z,1.73
2023-04-25T15:40:44.225Z,1.23
2023-04-25T15:43:16.455Z,1.20
2023-04-25T15:45:43.913Z,2.53
2023-04-25T15:48:12.010Z,2.45
2023-04-25T15:50:39.244Z,2.72
2023-04-25T15:53:07.244Z,1.17
2023-04-25T15:55:35.261Z,1.42
2023-04-25T15:58:02.586Z,1.77
2023-04-25T16:00:29.974Z,1.95
2023-04-25T16:02:57.983Z,1.02
2023-04-25T16:05:25.423Z,0.90
2023-04-25T16:07:54.018Z,1.45
2023-04-25T16:10:21.954Z,1.35
2023-04-25T16:12:51.119Z,1.05
2023-04-25T16:15:18.861Z,1.80
2023-04-25T16:17:46.252Z,1.15
2023-04-25T16:20:13.739Z,1.85
2023-04-25T16:22:42.205Z,2.03
2023-04-25T16:25:10.690Z,3.38
2023-04-25T16:27:39.791Z,3.20
2023-04-25T16:30:09.452Z,1.83
2023-04-25T16:32:38.358Z,2.00
2023-04-25T16:35:06.301Z,1.65
2023-04-25T16:37:33.732Z,0.90
2023-04-25T16:40:01.192Z,0.98
2023-04-25T16:42:28.456Z,1.25
2023-04-25T16:44:55.600Z,2.03
2023-04-25T16:47:22.823Z,1.02
2023-04-25T16:49:51.135Z,0.85
2023-04-25T16:52:20.029Z,1.55
2023-04-25T16:54:47.509Z,1.63
2023-04-25T16:57:14.900Z,0.93
2023-04-25T16:59:42.188Z,0.90
2023-04-25T17:02:13.225Z,1.55
2023-04-25T17:04:41.523Z,1.48
2023-04-25T17:07:09.216Z,1.67
2023-04-25T17:09:36.865Z,1.67
2023-04-25T17:12:04.858Z,3.05
2023-04-25T17:14:33.382Z,1.33
2023-04-25T17:17:01.032Z,1.42
2023-04-25T17:19:28.827Z,1.45
2023-04-25T17:21:56.559Z,2.30
2023-04-25T17:24:23.786Z,0.90
2023-04-25T17:26:50.966Z,1.90
2023-04-25T17:29:19.256Z,2.20
2023-04-25T17:31:46.946Z,1.48
2023-04-25T17:34:18.160Z,1.40
2023-04-25T17:36:46.242Z,1.75
2023-04-25T17:39:17.713Z,2.05
2023-04-25T17:41:45.309Z,1.17
2023-04-25T17:44:12.509Z,1.83
2023-04-25T17:46:39.654Z,2.13
2023-04-25T17:49:06.977Z,1.40
2023-04-25T17:51:34.300Z,1.00
2023-04-25T17:54:01.512Z,1.35
2023-04-25T17:56:29.288Z,1.92
2023-04-25T17:58:56.713Z,2.13
2023-04-25T18:01:24.094Z,4.18
2023-04-25T18:03:52.443Z,3.72
2023-04-25T18:06:19.679Z,1.77
2023-04-25T18:08:47.449Z,1.90
2023-04-25T18:11:15.046Z,1.58
2023-04-25T18:13:43.001Z,2.35
2023-04-25T18:16:10.197Z,2.17
2023-04-25T18:18:38.138Z,2.97
2023-04-25T18:21:08.775Z,1.65
2023-04-25T18:23:36.748Z,2.97
2023-04-25T18:26:04.714Z,3.95
2023-04-25T18:28:34.228Z,3.55
2023-04-25T18:31:01.392Z,2.15
2023-04-25T18:33:28.628Z,3.85
2023-04-25T18:35:59.110Z,3.00
2023-04-25T18:41:08.391Z,3.22
2023-04-25T18:43:44.998Z,3.40
2023-04-25T18:46:12.538Z,3.78
2023-04-25T18:48:39.889Z,4.13
2023-04-25T18:51:07.064Z,3.17
2023-04-25T18:53:34.686Z,2.60
2023-04-25T18:56:01.810Z,2.13
2023-04-25T18:58:29.515Z,2.97
2023-04-25T19:00:56.847Z,3.25
2023-04-25T19:03:24.589Z,5.25
2023-04-25T19:05:51.974Z,3.95
2023-04-25T19:08:19.221Z,3.65
2023-04-25T19:10:47.369Z,4.00
2023-04-25T19:13:14.932Z,2.75
2023-04-25T19:15:42.468Z,5.63
2023-04-25T19:18:09.856Z,4.85
2023-04-25T19:20:36.995Z,2.17
2023-04-25T19:23:05.514Z,2.50
2023-04-25T19:25:33.002Z,2.63
2023-04-25T19:28:00.720Z,3.38
2023-04-25T19:30:29.484Z,3.55
2023-04-25T19:32:57.873Z,3.72
2023-04-25T19:35:30.825Z,3.08
2023-04-25T19:37:58.652Z,3.55
2023-04-25T19:40:26.506Z,4.22
2023-04-25T19:42:53.864Z,2.25
2023-04-25T19:45:21.750Z,4.15
2023-04-25T19:47:49.220Z,3.40
2023-04-25T19:50:16.536Z,6.03
2023-04-25T19:52:44.241Z,4.10
2023-04-25T19:55:11.542Z,2.63
2023-04-25T19:57:39.253Z,2.50
2023-04-25T20:00:10.932Z,4.32
2023-04-25T20:02:40.881Z,2.20
2023-04-25T20:05:09.829Z,3.20
2023-04-25T20:07:37.042Z,1.88
2023-04-25T20:10:06.985Z,2.83
2023-04-25T20:12:37.899Z,2.97
2023-04-25T20:15:05.970Z,1.85
2023-04-25T20:17:33.823Z,1.58
2023-04-25T20:20:01.130Z,1.63
2023-04-25T20:22:31.852Z,1.20
2023-04-25T20:24:59.142Z,1.38
2023-04-25T20:27:26.260Z,2.03
2023-04-25T20:29:53.679Z,0.85
2023-04-25T20:32:21.226Z,0.82
2023-04-25T20:34:48.480Z,0.90
2023-04-25T20:37:16.643Z,0.63
2023-04-25T20:39:44.284Z,1.67
2023-04-25T20:42:11.433Z,3.47
2023-04-25T20:44:40.848Z,0.50
2023-04-25T20:47:09.551Z,1.48
2023-04-25T20:49:37.197Z,0.77
2023-04-25T20:52:06.108Z,0.70
2023-04-25T20:54:33.440Z,1.48
2023-04-25T20:57:01.300Z,0.55
2023-04-25T20:59:28.816Z,1.45
2023-04-25T21:01:56.488Z,0.73
2023-04-25T21:04:23.882Z,1.67
2023-04-25T21:06:51.389Z,0.45
2023-04-25T21:09:18.881Z,1.98
2023-04-25T21:11:46.333Z,1.05
2023-04-25T21:14:14.255Z,1.25
2023-04-25T21:16:42.773Z,1.02
2023-04-25T21:19:10.136Z,0.80
2023-04-25T21:21:37.342Z,0.88
2023-04-25T21:24:04.637Z,1.35
2023-04-25T21:26:31.741Z,1.13
2023-04-25T21:28:58.922Z,2.05
2023-04-25T21:31:26.504Z,1.08
2023-04-25T21:33:53.817Z,0.52
2023-04-25T21:36:22.301Z,1.15
2023-04-25T21:38:50.097Z,0.85
2023-04-25T21:41:20.500Z,2.25
2023-04-25T21:43:47.621Z,1.35
2023-04-25T21:46:23.459Z,2.15
2023-04-25T21:48:51.748Z,0.40
2023-04-25T21:51:19.840Z,0.40
2023-04-25T21:53:47.011Z,0.75
2023-04-25T21:56:14.276Z,0.32
2023-04-25T21:58:41.623Z,0.73
2023-04-25T22:01:10.012Z,0.50
2023-04-25T22:03:37.352Z,0.98
2023-04-25T22:06:04.737Z,0.60
2023-04-25T22:08:32.027Z,0.45
2023-04-25T22:11:00.536Z,0.40
2023-04-25T22:13:29.397Z,1.17
2023-04-25T22:15:56.525Z,0.85
2023-04-25T22:18:23.757Z,0.50
2023-04-25T22:20:50.942Z,0.70
2023-04-25T22:23:18.071Z,1.15
2023-04-25T22:25:45.339Z,2.25
2023-04-25T22:28:13.105Z,1.20
2023-04-25T22:30:40.198Z,1.52
2023-04-25T22:33:07.357Z,1.20
2023-04-25T22:35:34.531Z,1.17
2023-04-25T22:38:01.731Z,1.17
2023-04-25T22:40:29.021Z,1.10
2023-04-25T22:42:56.445Z,1.25
2023-04-25T22:45:23.588Z,0.52
2023-04-25T22:47:50.800Z,1.48
2023-04-25T22:50:18.157Z,0.85
2023-04-25T22:52:47.978Z,1.70
2023-04-25T22:55:15.293Z,1.00
2023-04-25T22:57:42.562Z,1.15
2023-04-25T23:00:20.375Z,1.95
2023-04-25T23:02:48.739Z,0.88
2023-04-25T23:05:16.431Z,0.60
2023-04-25T23:07:45.483Z,1.33
2023-04-25T23:10:14.359Z,1.88
2023-04-25T23:12:41.738Z,0.85
2023-04-25T23:15:10.154Z,0.65
2023-04-25T23:17:37.505Z,0.57
2023-04-25T23:20:07.764Z,0.90
2023-04-25T23:22:35.114Z,0.80
2023-04-25T23:25:02.674Z,0.60
2023-04-25T23:27:29.878Z,0.50
2023-04-25T23:29:58.372Z,0.75
2023-04-25T23:32:26.416Z,0.70
2023-04-25T23:34:53.648Z,1.38
2023-04-25T23:37:20.818Z,0.77
2023-04-25T23:39:52.521Z,0.60
2023-04-25T23:42:19.766Z,1.75
2023-04-25T23:44:46.910Z,1.15
2023-04-25T23:47:17.528Z,0.82
2023-04-25T23:49:45.930Z,0.60
2023-04-25T23:52:13.215Z,0.65
2023-04-25T23:54:40.407Z,0.98
2023-04-25T23:57:07.699Z,1.42
2023-04-25T23:59:34.861Z,3.65
